sensor_id;sensor_type;location;lat;lon;timestamp;P1;durP1;ratioP1;P2;durP2;ratioP2
14094;SDS011;18096;48.142;16.290;2023-02-27T00:00:55;2.47;;;2.28;;
14094;SDS011;18096;48.142;16.290;2023-02-27T00:03:22;2.33;;;2.22;;
14094;SDS011;18096;48.142;16.290;2023-02-27T00:05:48;2.47;;;2.27;;
14094;SDS011;18096;48.142;16.290;2023-02-27T00:08:13;2.40;;;1.93;;
14094;SDS011;18096;48.142;16.290;2023-02-27T00:10:39;2.90;;;1.83;;
14094;SDS011;18096;48.142;16.290;2023-02-27T00:13:05;5.20;;;1.90;;
14094;SDS011;18096;48.142;16.290;2023-02-27T00:15:31;2.55;;;2.10;;
14094;SDS011;18096;48.142;16.290;2023-02-27T00:17:57;2.10;;;1.90;;
14094;SDS011;18096;48.142;16.290;2023-02-27T00:20:24;5.50;;;2.40;;
14094;SDS011;18096;48.142;16.290;2023-02-27T00:22:50;2.30;;;2.20;;
14094;SDS011;18096;48.142;16.290;2023-02-27T00:25:16;2.50;;;2.40;;
14094;SDS011;18096;48.142;16.290;2023-02-27T00:27:42;2.25;;;2.15;;
14094;SDS011;18096;48.142;16.290;2023-02-27T00:30:08;4.25;;;2.35;;
14094;SDS011;18096;48.142;16.290;2023-02-27T00:32:38;2.58;;;2.33;;
14094;SDS011;18096;48.142;16.290;2023-02-27T00:35:04;2.92;;;2.75;;
14094;SDS011;18096;48.142;16.290;2023-02-27T00:37:31;2.50;;;2.30;;
14094;SDS011;18096;48.142;16.290;2023-02-27T00:39:58;2.10;;;1.90;;
14094;SDS011;18096;48.142;16.290;2023-02-27T00:42:24;2.47;;;2.28;;
14094;SDS011;18096;48.142;16.290;2023-02-27T00:44:51;3.13;;;2.90;;
14094;SDS011;18096;48.142;16.290;2023-02-27T00:47:16;2.75;;;2.55;;
14094;SDS011;18096;48.142;16.290;2023-02-27T00:49:42;3.43;;;2.30;;
14094;SDS011;18096;48.142;16.290;2023-02-27T00:52:08;1.90;;;1.80;;
14094;SDS011;18096;48.142;16.290;2023-02-27T00:54:34;5.53;;;2.22;;
14094;SDS011;18096;48.142;16.290;2023-02-27T00:56:59;3.00;;;2.40;;
14094;SDS011;18096;48.142;16.290;2023-02-27T00:59:25;6.60;;;2.45;;
14094;SDS011;18096;48.142;16.290;2023-02-27T01:01:51;2.63;;;2.42;;
14094;SDS011;18096;48.142;16.290;2023-02-27T01:04:17;2.70;;;2.50;;
14094;SDS011;18096;48.142;16.290;2023-02-27T01:06:42;2.78;;;2.15;;
14094;SDS011;18096;48.142;16.290;2023-02-27T01:09:08;2.10;;;1.90;;
14094;SDS011;18096;48.142;16.290;2023-02-27T01:11:34;3.13;;;2.30;;
14094;SDS011;18096;48.142;16.290;2023-02-27T01:14:00;6.53;;;2.13;;
14094;SDS011;18096;48.142;16.290;2023-02-27T01:16:26;2.23;;;2.03;;
14094;SDS011;18096;48.142;16.290;2023-02-27T01:18:52;3.30;;;2.00;;
14094;SDS011;18096;48.142;16.290;2023-02-27T01:21:18;2.30;;;2.20;;
14094;SDS011;18096;48.142;16.290;2023-02-27T01:23:44;4.80;;;2.47;;
14094;SDS011;18096;48.142;16.290;2023-02-27T01:26:10;5.43;;;2.40;;
14094;SDS011;18096;48.142;16.290;2023-02-27T01:28:36;2.93;;;2.30;;
14094;SDS011;18096;48.142;16.290;2023-02-27T01:31:02;2.60;;;1.98;;
14094;SDS011;18096;48.142;16.290;2023-02-27T01:33:27;3.30;;;2.00;;
14094;SDS011;18096;48.142;16.290;2023-02-27T01:35:53;2.63;;;2.40;;
14094;SDS011;18096;48.142;16.290;2023-02-27T01:38:19;4.18;;;2.10;;
14094;SDS011;18096;48.142;16.290;2023-02-27T01:40:45;2.20;;;2.00;;
14094;SDS011;18096;48.142;16.290;2023-02-27T01:43:15;3.38;;;2.17;;
14094;SDS011;18096;48.142;16.290;2023-02-27T01:45:43;3.72;;;2.20;;
14094;SDS011;18096;48.142;16.290;2023-02-27T01:50:40;2.10;;;2.00;;
14094;SDS011;18096;48.142;16.290;2023-02-27T01:53:16;5.82;;;2.15;;
14094;SDS011;18096;48.142;16.290;2023-02-27T01:55:43;2.10;;;2.00;;
14094;SDS011;18096;48.142;16.290;2023-02-27T01:58:12;2.00;;;1.80;;
14094;SDS011;18096;48.142;16.290;2023-02-27T02:00:39;2.20;;;2.00;;
14094;SDS011;18096;48.142;16.290;2023-02-27T02:06:12;2.50;;;2.30;;
14094;SDS011;18096;48.142;16.290;2023-02-27T02:08:41;2.60;;;2.13;;
14094;SDS011;18096;48.142;16.290;2023-02-27T02:11:09;2.75;;;1.90;;
14094;SDS011;18096;48.142;16.290;2023-02-27T02:13:37;4.25;;;1.83;;
14094;SDS011;18096;48.142;16.290;2023-02-27T02:21:48;2.45;;;2.25;;
14094;SDS011;18096;48.142;16.290;2023-02-27T02:32:31;3.30;;;1.80;;
14094;SDS011;18096;48.142;16.290;2023-02-27T02:48:24;1.80;;;1.70;;
14094;SDS011;18096;48.142;16.290;2023-02-27T02:56:01;7.13;;;2.47;;
14094;SDS011;18096;48.142;16.290;2023-02-27T03:01:24;3.40;;;2.23;;
14094;SDS011;18096;48.142;16.290;2023-02-27T03:04:04;4.80;;;1.60;;
14094;SDS011;18096;48.142;16.290;2023-02-27T03:06:39;2.05;;;1.95;;
14094;SDS011;18096;48.142;16.290;2023-02-27T03:09:18;5.50;;;2.13;;
14094;SDS011;18096;48.142;16.290;2023-02-27T03:11:55;3.40;;;2.00;;
14094;SDS011;18096;48.142;16.290;2023-02-27T03:16:53;1.80;;;1.80;;
14094;SDS011;18096;48.142;16.290;2023-02-27T03:21:55;2.80;;;2.03;;
14094;SDS011;18096;48.142;16.290;2023-02-27T03:27:18;2.13;;;2.00;;
14094;SDS011;18096;48.142;16.290;2023-02-27T03:30:06;2.53;;;1.88;;
14094;SDS011;18096;48.142;16.290;2023-02-27T03:32:36;2.65;;;2.25;;
14094;SDS011;18096;48.142;16.290;2023-02-27T03:35:17;8.68;;;1.90;;
14094;SDS011;18096;48.142;16.290;2023-02-27T03:43:05;2.47;;;1.80;;
14094;SDS011;18096;48.142;16.290;2023-02-27T03:46:06;1.90;;;1.65;;
14094;SDS011;18096;48.142;16.290;2023-02-27T03:48:33;4.55;;;2.40;;
14094;SDS011;18096;48.142;16.290;2023-02-27T03:50:59;3.70;;;2.28;;
14094;SDS011;18096;48.142;16.290;2023-02-27T03:56:15;3.10;;;1.90;;
14094;SDS011;18096;48.142;16.290;2023-02-27T03:58:47;2.80;;;2.50;;
14094;SDS011;18096;48.142;16.290;2023-02-27T04:01:13;2.30;;;2.10;;
14094;SDS011;18096;48.142;16.290;2023-02-27T04:03:41;2.40;;;1.80;;
14094;SDS011;18096;48.142;16.290;2023-02-27T04:06:12;2.50;;;2.30;;
14094;SDS011;18096;48.142;16.290;2023-02-27T04:09:02;5.15;;;2.25;;
14094;SDS011;18096;48.142;16.290;2023-02-27T04:16:59;2.87;;;1.80;;
14094;SDS011;18096;48.142;16.290;2023-02-27T04:22:50;2.40;;;2.00;;
14094;SDS011;18096;48.142;16.290;2023-02-27T04:25:38;2.70;;;2.30;;
14094;SDS011;18096;48.142;16.290;2023-02-27T04:36:19;1.90;;;1.80;;
14094;SDS011;18096;48.142;16.290;2023-02-27T04:39:08;3.15;;;1.83;;
14094;SDS011;18096;48.142;16.290;2023-02-27T04:42:13;4.80;;;2.35;;
14094;SDS011;18096;48.142;16.290;2023-02-27T04:44:42;2.20;;;2.00;;
14094;SDS011;18096;48.142;16.290;2023-02-27T04:47:09;2.35;;;1.90;;
14094;SDS011;18096;48.142;16.290;2023-02-27T04:49:38;2.00;;;1.90;;
14094;SDS011;18096;48.142;16.290;2023-02-27T04:52:16;2.20;;;2.00;;
14094;SDS011;18096;48.142;16.290;2023-02-27T04:54:53;2.45;;;2.10;;
14094;SDS011;18096;48.142;16.290;2023-02-27T04:58:11;2.47;;;1.88;;
14094;SDS011;18096;48.142;16.290;2023-02-27T05:00:19;2.75;;;1.60;;
14094;SDS011;18096;48.142;16.290;2023-02-27T05:02:52;3.00;;;1.80;;
14094;SDS011;18096;48.142;16.290;2023-02-27T05:05:24;3.10;;;1.92;;
14094;SDS011;18096;48.142;16.290;2023-02-27T05:07:58;2.20;;;1.70;;
14094;SDS011;18096;48.142;16.290;2023-02-27T05:13:42;2.50;;;1.90;;
14094;SDS011;18096;48.142;16.290;2023-02-27T05:16:31;1.90;;;1.80;;
14094;SDS011;18096;48.142;16.290;2023-02-27T05:19:02;2.08;;;1.50;;
14094;SDS011;18096;48.142;16.290;2023-02-27T05:21:30;3.75;;;1.85;;
14094;SDS011;18096;48.142;16.290;2023-02-27T05:24:02;2.92;;;2.10;;
14094;SDS011;18096;48.142;16.290;2023-02-27T05:26:58;2.95;;;1.80;;
14094;SDS011;18096;48.142;16.290;2023-02-27T05:29:35;2.28;;;1.92;;
14094;SDS011;18096;48.142;16.290;2023-02-27T05:32:30;10.77;;;2.20;;
14094;SDS011;18096;48.142;16.290;2023-02-27T05:38:03;2.70;;;2.10;;
14094;SDS011;18096;48.142;16.290;2023-02-27T05:40:39;1.95;;;1.80;;
14094;SDS011;18096;48.142;16.290;2023-02-27T05:43:14;1.80;;;1.60;;
14094;SDS011;18096;48.142;16.290;2023-02-27T05:45:45;4.80;;;1.60;;
14094;SDS011;18096;48.142;16.290;2023-02-27T05:48:15;4.72;;;1.77;;
14094;SDS011;18096;48.142;16.290;2023-02-27T05:50:44;1.65;;;1.58;;
14094;SDS011;18096;48.142;16.290;2023-02-27T05:53:14;4.57;;;2.00;;
14094;SDS011;18096;48.142;16.290;2023-02-27T05:55:45;1.70;;;1.60;;
14094;SDS011;18096;48.142;16.290;2023-02-27T05:58:30;2.40;;;1.55;;
14094;SDS011;18096;48.142;16.290;2023-02-27T06:01:01;2.33;;;1.92;;
14094;SDS011;18096;48.142;16.290;2023-02-27T06:03:30;2.00;;;1.90;;
14094;SDS011;18096;48.142;16.290;2023-02-27T06:05:58;2.00;;;1.80;;
14094;SDS011;18096;48.142;16.290;2023-02-27T06:08:25;2.20;;;2.00;;
14094;SDS011;18096;48.142;16.290;2023-02-27T06:10:50;4.10;;;2.00;;
14094;SDS011;18096;48.142;16.290;2023-02-27T06:13:16;3.42;;;2.00;;
14094;SDS011;18096;48.142;16.290;2023-02-27T06:15:45;2.42;;;1.98;;
14094;SDS011;18096;48.142;16.290;2023-02-27T06:18:11;3.72;;;2.20;;
14094;SDS011;18096;48.142;16.290;2023-02-27T06:20:38;1.40;;;1.30;;
14094;SDS011;18096;48.142;16.290;2023-02-27T06:23:05;1.73;;;1.63;;
14094;SDS011;18096;48.142;16.290;2023-02-27T06:25:31;7.37;;;1.97;;
14094;SDS011;18096;48.142;16.290;2023-02-27T06:27:57;3.60;;;1.55;;
14094;SDS011;18096;48.142;16.290;2023-02-27T06:30:23;3.10;;;2.15;;
14094;SDS011;18096;48.142;16.290;2023-02-27T06:32:49;2.30;;;2.10;;
14094;SDS011;18096;48.142;16.290;2023-02-27T06:35:15;3.85;;;1.95;;
14094;SDS011;18096;48.142;16.290;2023-02-27T06:37:41;1.70;;;1.60;;
14094;SDS011;18096;48.142;16.290;2023-02-27T06:40:07;1.55;;;1.17;;
14094;SDS011;18096;48.142;16.290;2023-02-27T06:42:40;5.45;;;1.95;;
14094;SDS011;18096;48.142;16.290;2023-02-27T06:45:07;1.88;;;1.65;;
14094;SDS011;18096;48.142;16.290;2023-02-27T06:47:34;2.83;;;2.13;;
14094;SDS011;18096;48.142;16.290;2023-02-27T06:50:00;3.85;;;2.50;;
14094;SDS011;18096;48.142;16.290;2023-02-27T06:52:27;4.18;;;2.30;;
14094;SDS011;18096;48.142;16.290;2023-02-27T06:54:52;2.30;;;1.88;;
14094;SDS011;18096;48.142;16.290;2023-02-27T06:57:18;4.35;;;2.30;;
14094;SDS011;18096;48.142;16.290;2023-02-27T06:59:44;3.40;;;2.10;;
14094;SDS011;18096;48.142;16.290;2023-02-27T07:02:13;9.00;;;2.60;;
14094;SDS011;18096;48.142;16.290;2023-02-27T07:04:40;3.17;;;2.63;;
14094;SDS011;18096;48.142;16.290;2023-02-27T07:07:06;4.50;;;2.00;;
14094;SDS011;18096;48.142;16.290;2023-02-27T07:09:32;2.00;;;1.80;;
14094;SDS011;18096;48.142;16.290;2023-02-27T07:12:00;9.70;;;2.50;;
14094;SDS011;18096;48.142;16.290;2023-02-27T07:14:26;2.50;;;2.30;;
14094;SDS011;18096;48.142;16.290;2023-02-27T07:16:52;2.30;;;2.15;;
14094;SDS011;18096;48.142;16.290;2023-02-27T07:19:18;4.22;;;2.10;;
14094;SDS011;18096;48.142;16.290;2023-02-27T07:21:43;2.45;;;2.25;;
14094;SDS011;18096;48.142;16.290;2023-02-27T07:24:09;5.23;;;2.60;;
14094;SDS011;18096;48.142;16.290;2023-02-27T07:26:35;2.43;;;2.30;;
14094;SDS011;18096;48.142;16.290;2023-02-27T07:29:01;3.10;;;1.73;;
14094;SDS011;18096;48.142;16.290;2023-02-27T07:31:27;2.10;;;1.85;;
14094;SDS011;18096;48.142;16.290;2023-02-27T07:33:53;4.03;;;1.77;;
14094;SDS011;18096;48.142;16.290;2023-02-27T07:36:19;2.05;;;1.95;;
14094;SDS011;18096;48.142;16.290;2023-02-27T07:38:45;2.67;;;2.38;;
14094;SDS011;18096;48.142;16.290;2023-02-27T07:41:10;2.30;;;2.20;;
14094;SDS011;18096;48.142;16.290;2023-02-27T07:43:36;2.28;;;2.08;;
14094;SDS011;18096;48.142;16.290;2023-02-27T07:46:02;3.03;;;2.13;;
14094;SDS011;18096;48.142;16.290;2023-02-27T07:48:28;2.30;;;2.20;;
14094;SDS011;18096;48.142;16.290;2023-02-27T07:50:55;1.73;;;1.63;;
14094;SDS011;18096;48.142;16.290;2023-02-27T07:53:21;2.42;;;2.15;;
14094;SDS011;18096;48.142;16.290;2023-02-27T07:55:46;5.03;;;1.40;;
14094;SDS011;18096;48.142;16.290;2023-02-27T07:58:12;3.10;;;1.60;;
14094;SDS011;18096;48.142;16.290;2023-02-27T08:00:38;2.20;;;2.00;;
14094;SDS011;18096;48.142;16.290;2023-02-27T08:03:03;4.70;;;2.47;;
14094;SDS011;18096;48.142;16.290;2023-02-27T08:05:30;6.20;;;2.13;;
14094;SDS011;18096;48.142;16.290;2023-02-27T08:07:55;2.33;;;2.13;;
14094;SDS011;18096;48.142;16.290;2023-02-27T08:10:21;1.80;;;1.70;;
14094;SDS011;18096;48.142;16.290;2023-02-27T08:12:47;12.50;;;2.17;;
14094;SDS011;18096;48.142;16.290;2023-02-27T08:15:12;2.10;;;2.00;;
14094;SDS011;18096;48.142;16.290;2023-02-27T08:17:38;2.20;;;2.00;;
14094;SDS011;18096;48.142;16.290;2023-02-27T08:20:04;2.40;;;1.80;;
14094;SDS011;18096;48.142;16.290;2023-02-27T08:22:35;1.50;;;1.33;;
14094;SDS011;18096;48.142;16.290;2023-02-27T08:25:01;3.80;;;1.83;;
14094;SDS011;18096;48.142;16.290;2023-02-27T08:27:30;2.10;;;2.00;;
14094;SDS011;18096;48.142;16.290;2023-02-27T08:29:56;2.92;;;1.70;;
14094;SDS011;18096;48.142;16.290;2023-02-27T08:32:23;4.30;;;1.60;;
14094;SDS011;18096;48.142;16.290;2023-02-27T08:34:48;1.50;;;1.30;;
14094;SDS011;18096;48.142;16.290;2023-02-27T08:37:14;1.55;;;1.45;;
14094;SDS011;18096;48.142;16.290;2023-02-27T08:39:39;2.50;;;1.57;;
14094;SDS011;18096;48.142;16.290;2023-02-27T08:42:05;2.30;;;2.10;;
14094;SDS011;18096;48.142;16.290;2023-02-27T08:44:31;5.20;;;1.70;;
14094;SDS011;18096;48.142;16.290;2023-02-27T08:46:57;3.10;;;1.80;;
14094;SDS011;18096;48.142;16.290;2023-02-27T08:49:23;3.20;;;1.98;;
14094;SDS011;18096;48.142;16.290;2023-02-27T08:51:49;11.60;;;1.95;;
14094;SDS011;18096;48.142;16.290;2023-02-27T08:54:15;1.60;;;1.50;;
14094;SDS011;18096;48.142;16.290;2023-02-27T08:56:42;1.55;;;1.45;;
14094;SDS011;18096;48.142;16.290;2023-02-27T08:59:08;2.53;;;1.40;;
14094;SDS011;18096;48.142;16.290;2023-02-27T09:01:34;3.00;;;1.80;;
14094;SDS011;18096;48.142;16.290;2023-02-27T09:04:01;2.13;;;1.73;;
14094;SDS011;18096;48.142;16.290;2023-02-27T09:06:28;1.80;;;1.70;;
14094;SDS011;18096;48.142;16.290;2023-02-27T09:08:55;2.70;;;1.50;;
14094;SDS011;18096;48.142;16.290;2023-02-27T09:11:21;1.33;;;1.23;;
14094;SDS011;18096;48.142;16.290;2023-02-27T09:13:47;2.10;;;1.90;;
14094;SDS011;18096;48.142;16.290;2023-02-27T09:16:12;4.80;;;2.07;;
14094;SDS011;18096;48.142;16.290;2023-02-27T09:18:38;1.67;;;1.40;;
14094;SDS011;18096;48.142;16.290;2023-02-27T09:21:04;4.40;;;2.15;;
14094;SDS011;18096;48.142;16.290;2023-02-27T09:23:30;1.50;;;1.40;;
14094;SDS011;18096;48.142;16.290;2023-02-27T09:25:55;4.30;;;1.90;;
14094;SDS011;18096;48.142;16.290;2023-02-27T09:28:21;3.53;;;1.38;;
14094;SDS011;18096;48.142;16.290;2023-02-27T09:30:47;1.20;;;1.20;;
14094;SDS011;18096;48.142;16.290;2023-02-27T09:33:12;1.37;;;1.23;;
14094;SDS011;18096;48.142;16.290;2023-02-27T09:35:39;2.70;;;1.52;;
14094;SDS011;18096;48.142;16.290;2023-02-27T09:38:05;1.83;;;1.55;;
14094;SDS011;18096;48.142;16.290;2023-02-27T09:40:31;1.92;;;1.23;;
14094;SDS011;18096;48.142;16.290;2023-02-27T09:43:06;1.75;;;1.65;;
14094;SDS011;18096;48.142;16.290;2023-02-27T09:45:38;1.60;;;1.50;;
14094;SDS011;18096;48.142;16.290;2023-02-27T09:48:05;1.52;;;1.42;;
14094;SDS011;18096;48.142;16.290;2023-02-27T09:50:41;2.63;;;2.50;;
14094;SDS011;18096;48.142;16.290;2023-02-27T09:53:43;4.87;;;2.17;;
14094;SDS011;18096;48.142;16.290;2023-02-27T10:07:31;1.80;;;1.60;;
14094;SDS011;18096;48.142;16.290;2023-02-27T10:17:47;3.30;;;2.45;;
14094;SDS011;18096;48.142;16.290;2023-02-27T10:20:28;3.45;;;1.25;;
14094;SDS011;18096;48.142;16.290;2023-02-27T10:23:00;1.50;;;1.20;;
14094;SDS011;18096;48.142;16.290;2023-02-27T10:25:37;1.63;;;1.52;;
14094;SDS011;18096;48.142;16.290;2023-02-27T10:28:10;1.50;;;1.38;;
14094;SDS011;18096;48.142;16.290;2023-02-27T10:30:37;1.85;;;1.75;;
14094;SDS011;18096;48.142;16.290;2023-02-27T10:33:11;1.37;;;1.37;;
14094;SDS011;18096;48.142;16.290;2023-02-27T10:35:47;2.10;;;1.70;;
14094;SDS011;18096;48.142;16.290;2023-02-27T10:38:27;1.63;;;1.60;;
14094;SDS011;18096;48.142;16.290;2023-02-27T10:41:05;3.38;;;2.40;;
14094;SDS011;18096;48.142;16.290;2023-02-27T10:43:34;4.63;;;2.00;;
14094;SDS011;18096;48.142;16.290;2023-02-27T10:46:00;1.60;;;1.47;;
14094;SDS011;18096;48.142;16.290;2023-02-27T10:48:27;2.00;;;1.60;;
14094;SDS011;18096;48.142;16.290;2023-02-27T10:51:18;1.50;;;1.40;;
14094;SDS011;18096;48.142;16.290;2023-02-27T10:53:47;2.15;;;1.95;;
14094;SDS011;18096;48.142;16.290;2023-02-27T10:56:14;4.00;;;1.50;;
14094;SDS011;18096;48.142;16.290;2023-02-27T10:58:45;4.93;;;1.73;;
14094;SDS011;18096;48.142;16.290;2023-02-27T11:01:11;2.30;;;1.70;;
14094;SDS011;18096;48.142;16.290;2023-02-27T11:03:37;1.50;;;1.40;;
14094;SDS011;18096;48.142;16.290;2023-02-27T11:06:12;3.13;;;1.80;;
14094;SDS011;18096;48.142;16.290;2023-02-27T11:09:07;3.03;;;1.80;;
14094;SDS011;18096;48.142;16.290;2023-02-27T11:11:42;2.75;;;1.30;;
14094;SDS011;18096;48.142;16.290;2023-02-27T11:14:25;4.18;;;1.30;;
14094;SDS011;18096;48.142;16.290;2023-02-27T11:16:54;1.60;;;1.50;;
14094;SDS011;18096;48.142;16.290;2023-02-27T11:21:59;1.90;;;1.80;;
14094;SDS011;18096;48.142;16.290;2023-02-27T11:24:28;1.23;;;1.15;;
14094;SDS011;18096;48.142;16.290;2023-02-27T11:27:02;2.30;;;1.70;;
14094;SDS011;18096;48.142;16.290;2023-02-27T11:29:41;1.77;;;1.67;;
14094;SDS011;18096;48.142;16.290;2023-02-27T11:32:43;2.03;;;1.80;;
14094;SDS011;18096;48.142;16.290;2023-02-27T11:35:23;3.67;;;1.97;;
14094;SDS011;18096;48.142;16.290;2023-02-27T11:37:54;2.85;;;2.00;;
14094;SDS011;18096;48.142;16.290;2023-02-27T11:40:25;5.10;;;2.22;;
14094;SDS011;18096;48.142;16.290;2023-02-27T11:43:03;1.67;;;1.58;;
14094;SDS011;18096;48.142;16.290;2023-02-27T11:45:48;2.30;;;1.60;;
14094;SDS011;18096;48.142;16.290;2023-02-27T11:56:20;2.08;;;1.88;;
14094;SDS011;18096;48.142;16.290;2023-02-27T11:59:04;2.40;;;1.65;;
14094;SDS011;18096;48.142;16.290;2023-02-27T12:04:10;2.60;;;1.40;;
14094;SDS011;18096;48.142;16.290;2023-02-27T12:06:43;1.30;;;1.30;;
14094;SDS011;18096;48.142;16.290;2023-02-27T12:09:28;1.77;;;1.67;;
14094;SDS011;18096;48.142;16.290;2023-02-27T12:11:55;4.88;;;1.40;;
14094;SDS011;18096;48.142;16.290;2023-02-27T12:14:25;2.27;;;2.07;;
14094;SDS011;18096;48.142;16.290;2023-02-27T12:22:47;1.70;;;1.60;;
14094;SDS011;18096;48.142;16.290;2023-02-27T12:30:30;7.05;;;1.80;;
14094;SDS011;18096;48.142;16.290;2023-02-27T12:36:09;2.08;;;1.90;;
14094;SDS011;18096;48.142;16.290;2023-02-27T12:38:37;1.90;;;1.80;;
14094;SDS011;18096;48.142;16.290;2023-02-27T12:43:56;2.00;;;1.83;;
14094;SDS011;18096;48.142;16.290;2023-02-27T12:46:57;4.88;;;2.10;;
14094;SDS011;18096;48.142;16.290;2023-02-27T12:54:38;3.45;;;1.80;;
14094;SDS011;18096;48.142;16.290;2023-02-27T12:57:31;1.70;;;1.60;;
14094;SDS011;18096;48.142;16.290;2023-02-27T13:02:43;2.30;;;1.60;;
14094;SDS011;18096;48.142;16.290;2023-02-27T13:05:36;1.57;;;1.50;;
14094;SDS011;18096;48.142;16.290;2023-02-27T13:10:58;1.60;;;1.50;;
14094;SDS011;18096;48.142;16.290;2023-02-27T13:13:50;2.38;;;2.00;;
14094;SDS011;18096;48.142;16.290;2023-02-27T13:24:27;2.10;;;1.45;;
14094;SDS011;18096;48.142;16.290;2023-02-27T13:27:12;2.00;;;1.88;;
14094;SDS011;18096;48.142;16.290;2023-02-27T13:38:49;1.60;;;1.50;;
14094;SDS011;18096;48.142;16.290;2023-02-27T13:46:45;3.70;;;2.15;;
14094;SDS011;18096;48.142;16.290;2023-02-27T14:04:37;2.95;;;1.90;;
14094;SDS011;18096;48.142;16.290;2023-02-27T14:07:09;3.67;;;1.93;;
14094;SDS011;18096;48.142;16.290;2023-02-27T14:09:45;2.50;;;1.90;;
14094;SDS011;18096;48.142;16.290;2023-02-27T14:15:00;1.88;;;1.77;;
14094;SDS011;18096;48.142;16.290;2023-02-27T14:20:00;4.60;;;2.20;;
14094;SDS011;18096;48.142;16.290;2023-02-27T14:28:35;2.70;;;1.90;;
14094;SDS011;18096;48.142;16.290;2023-02-27T14:31:22;3.10;;;2.50;;
14094;SDS011;18096;48.142;16.290;2023-02-27T14:33:59;5.50;;;2.60;;
14094;SDS011;18096;48.142;16.290;2023-02-27T14:39:40;1.70;;;1.60;;
14094;SDS011;18096;48.142;16.290;2023-02-27T14:44:52;1.88;;;1.77;;
14094;SDS011;18096;48.142;16.290;2023-02-27T14:47:31;2.10;;;1.80;;
14094;SDS011;18096;48.142;16.290;2023-02-27T14:49:59;2.90;;;1.90;;
14094;SDS011;18096;48.142;16.290;2023-02-27T14:52:28;7.70;;;2.30;;
14094;SDS011;18096;48.142;16.290;2023-02-27T14:55:15;2.40;;;2.20;;
14094;SDS011;18096;48.142;16.290;2023-02-27T14:57:53;3.67;;;2.10;;
14094;SDS011;18096;48.142;16.290;2023-02-27T15:00:38;5.05;;;2.28;;
14094;SDS011;18096;48.142;16.290;2023-02-27T15:03:14;2.15;;;2.00;;
14094;SDS011;18096;48.142;16.290;2023-02-27T15:05:41;3.60;;;2.10;;
14094;SDS011;18096;48.142;16.290;2023-02-27T15:08:12;8.60;;;2.40;;
14094;SDS011;18096;48.142;16.290;2023-02-27T15:10:41;3.30;;;2.50;;
14094;SDS011;18096;48.142;16.290;2023-02-27T15:13:14;2.28;;;1.90;;
14094;SDS011;18096;48.142;16.290;2023-02-27T15:18:57;2.17;;;1.98;;
14094;SDS011;18096;48.142;16.290;2023-02-27T15:21:38;2.00;;;1.90;;
14094;SDS011;18096;48.142;16.290;2023-02-27T15:24:06;5.13;;;2.20;;
14094;SDS011;18096;48.142;16.290;2023-02-27T15:26:43;2.25;;;2.10;;
14094;SDS011;18096;48.142;16.290;2023-02-27T15:29:13;2.17;;;2.08;;
14094;SDS011;18096;48.142;16.290;2023-02-27T15:31:46;1.88;;;1.77;;
14094;SDS011;18096;48.142;16.290;2023-02-27T15:34:12;1.83;;;1.73;;
14094;SDS011;18096;48.142;16.290;2023-02-27T15:36:43;1.83;;;1.70;;
14094;SDS011;18096;48.142;16.290;2023-02-27T15:44:15;2.20;;;2.10;;
14094;SDS011;18096;48.142;16.290;2023-02-27T15:46:43;2.60;;;2.00;;
14094;SDS011;18096;48.142;16.290;2023-02-27T15:49:13;2.40;;;2.20;;
14094;SDS011;18096;48.142;16.290;2023-02-27T15:51:41;2.83;;;2.45;;
14094;SDS011;18096;48.142;16.290;2023-02-27T15:54:06;2.22;;;2.10;;
14094;SDS011;18096;48.142;16.290;2023-02-27T15:56:34;2.35;;;2.20;;
14094;SDS011;18096;48.142;16.290;2023-02-27T15:59:02;2.40;;;2.20;;
14094;SDS011;18096;48.142;16.290;2023-02-27T16:01:29;4.22;;;2.50;;
14094;SDS011;18096;48.142;16.290;2023-02-27T16:04:05;3.01;;;2.67;;
14094;SDS011;18096;48.142;16.290;2023-02-27T16:06:45;2.80;;;2.60;;
14094;SDS011;18096;48.142;16.290;2023-02-27T16:09:24;4.70;;;2.80;;
14094;SDS011;18096;48.142;16.290;2023-02-27T16:15:07;2.13;;;1.92;;
14094;SDS011;18096;48.142;16.290;2023-02-27T16:20:29;3.70;;;2.08;;
14094;SDS011;18096;48.142;16.290;2023-02-27T16:23:05;4.00;;;1.80;;
14094;SDS011;18096;48.142;16.290;2023-02-27T16:25:40;8.48;;;2.20;;
14094;SDS011;18096;48.142;16.290;2023-02-27T16:28:12;2.53;;;2.40;;
14094;SDS011;18096;48.142;16.290;2023-02-27T16:30:39;4.80;;;1.80;;
14094;SDS011;18096;48.142;16.290;2023-02-27T16:33:12;3.40;;;1.80;;
14094;SDS011;18096;48.142;16.290;2023-02-27T16:35:44;2.88;;;1.90;;
14094;SDS011;18096;48.142;16.290;2023-02-27T16:38:10;2.13;;;1.73;;
14094;SDS011;18096;48.142;16.290;2023-02-27T16:40:36;2.30;;;2.10;;
14094;SDS011;18096;48.142;16.290;2023-02-27T16:43:02;5.40;;;2.40;;
14094;SDS011;18096;48.142;16.290;2023-02-27T16:45:28;2.90;;;1.80;;
14094;SDS011;18096;48.142;16.290;2023-02-27T16:47:56;3.75;;;2.35;;
14094;SDS011;18096;48.142;16.290;2023-02-27T16:50:25;2.17;;;1.98;;
14094;SDS011;18096;48.142;16.290;2023-02-27T16:52:52;1.88;;;1.77;;
14094;SDS011;18096;48.142;16.290;2023-02-27T16:55:18;9.88;;;5.70;;
14094;SDS011;18096;48.142;16.290;2023-02-27T16:57:46;7.00;;;2.42;;
14094;SDS011;18096;48.142;16.290;2023-02-27T17:00:15;4.80;;;2.58;;
14094;SDS011;18096;48.142;16.290;2023-02-27T17:02:42;2.70;;;2.40;;
14094;SDS011;18096;48.142;16.290;2023-02-27T17:05:08;2.43;;;2.23;;
14094;SDS011;18096;48.142;16.290;2023-02-27T17:07:34;3.08;;;2.42;;
14094;SDS011;18096;48.142;16.290;2023-02-27T17:10:01;3.80;;;2.50;;
14094;SDS011;18096;48.142;16.290;2023-02-27T17:12:27;2.55;;;2.30;;
14094;SDS011;18096;48.142;16.290;2023-02-27T17:14:53;2.73;;;2.53;;
14094;SDS011;18096;48.142;16.290;2023-02-27T17:17:20;3.60;;;2.20;;
14094;SDS011;18096;48.142;16.290;2023-02-27T17:19:45;3.20;;;2.90;;
14094;SDS011;18096;48.142;16.290;2023-02-27T17:22:11;2.88;;;2.67;;
14094;SDS011;18096;48.142;16.290;2023-02-27T17:24:39;4.67;;;2.87;;
14094;SDS011;18096;48.142;16.290;2023-02-27T17:27:05;4.97;;;2.40;;
14094;SDS011;18096;48.142;16.290;2023-02-27T17:29:31;2.75;;;2.42;;
14094;SDS011;18096;48.142;16.290;2023-02-27T17:31:57;6.18;;;2.60;;
14094;SDS011;18096;48.142;16.290;2023-02-27T17:34:23;4.85;;;2.38;;
14094;SDS011;18096;48.142;16.290;2023-02-27T17:36:48;2.30;;;2.10;;
14094;SDS011;18096;48.142;16.290;2023-02-27T17:39:15;2.40;;;2.30;;
14094;SDS011;18096;48.142;16.290;2023-02-27T17:41:41;2.70;;;2.40;;
14094;SDS011;18096;48.142;16.290;2023-02-27T17:44:11;2.47;;;2.28;;
14094;SDS011;18096;48.142;16.290;2023-02-27T17:46:38;2.83;;;2.63;;
14094;SDS011;18096;48.142;16.290;2023-02-27T17:49:04;3.78;;;2.85;;
14094;SDS011;18096;48.142;16.290;2023-02-27T17:51:31;4.40;;;3.10;;
14094;SDS011;18096;48.142;16.290;2023-02-27T17:54:01;6.90;;;3.08;;
14094;SDS011;18096;48.142;16.290;2023-02-27T17:56:28;7.00;;;3.10;;
14094;SDS011;18096;48.142;16.290;2023-02-27T17:58:55;7.97;;;3.40;;
14094;SDS011;18096;48.142;16.290;2023-02-27T18:01:22;5.35;;;3.03;;
14094;SDS011;18096;48.142;16.290;2023-02-27T18:03:50;6.47;;;3.38;;
14094;SDS011;18096;48.142;16.290;2023-02-27T18:06:16;5.95;;;3.42;;
14094;SDS011;18096;48.142;16.290;2023-02-27T18:08:42;6.80;;;3.70;;
14094;SDS011;18096;48.142;16.290;2023-02-27T18:11:10;7.00;;;4.35;;
14094;SDS011;18096;48.142;16.290;2023-02-27T18:13:39;4.63;;;3.80;;
14094;SDS011;18096;48.142;16.290;2023-02-27T18:16:08;8.13;;;3.88;;
14094;SDS011;18096;48.142;16.290;2023-02-27T18:18:39;4.32;;;3.80;;
14094;SDS011;18096;48.142;16.290;2023-02-27T18:21:08;3.88;;;3.50;;